Melbourne, FL

4:28 AM EST on December 07, 2016 (GMT -0500)
Melbourne | | Change Station

Elev 0 ft 28.07 °N, 80.64 °W | Updated 1 minute ago

Mostly Cloudy
Mostly Cloudy
69.6 °F
Feels Like 69.6 °F
N
1.2
Wind Variable Wind from WNW
Gusts 3.1 mph

Today
High -- | Low -- °F
--% Chance of Precip.
Yesterday
High -- | Low -- °F
Precip. -- in
Pressure 29.99 in
Visibility 4.0 miles
Clouds Mostly Cloudy 300 ft
Mostly Cloudy 1400 ft
Dew Point 67 °F
Humidity 90%
Rainfall 0.00 in
Snow Depth Not available.
7:01 AM 5:26 PM
Waxing Crescent, 50% visible
SPECI KMLB 070909Z AUTO 30005KT 4SM BR BKN003 BKN014 19/19 A2999 RMK AO2 T01890189
Pressure 29.99 in
Visibility 4.0 miles
Clouds Mostly Cloudy 300 ft
Mostly Cloudy 1400 ft
Dew Point 67 °F
Humidity 90%
Rainfall 0.00 in
Snow Depth Not available.
7:01 AM 5:26 PM
Waxing Crescent, 50% visible
SPECI KMLB 070909Z AUTO 30005KT 4SM BR BKN003 BKN014 19/19 A2999 RMK AO2 T01890189

10-Day Weather Forecast

Almanac

Astronomy

Dec. 07, 2016 Rise Set
Actual Time
Civil Twilight
Nautical Twilight
Astronomical Twilight
Moon
Length of Visible Light
Length of Day
Tomorrow will be .
, % of the Moon is Illuminated

Today's Extremes

State Highs State Lows

Community

WunderPhotos

Upload Photos

1,956,104 photos uploaded!

WunderBlog® & News

Nearby

Air Quality

  Air Quality AQ Index Pollutant
Not available.

Snow Depth

Station Depth Elevation

Earthquake Activity

City Distance Mag. Time & Date
Minimum magnitude displayed is 2.5.

Coastal Water Temperatures

Place Temperature

Stations

Nearby Weather Stations

Station Location Temp. Windchill Dew Point Humidity Wind Precip. Elev Updated Type
                   

Watches & Warnings

There are currently no watches in effect.